Time;durP1;ratioP1;P1;durP2;ratioP2;P2;SDS_P1;SDS_P2;PMS_P1;PMS_P2;Temp;Humidity;BMP_temperature;BMP_pressure;BME280_temperature;BME280_humidity;BME280_pressure;Samples;Min_cycle;Max_cycle;Signal;HPM_P1;HPM_P2
2022/10/30 00:01:13;;;;;;;;;;;;;;;17.19;65.20;100650.06;4438489;32;19973;-76
2022/10/30 00:03:40;;;;;;;;;;;;;;;17.09;65.57;100653.53;4433034;32;19993;-78
2022/10/30 00:06:07;;;;;;;;;;;;;;;17.24;65.01;100652.69;4434447;32;20082;-77
2022/10/30 00:08:34;;;;;;;;;;;;;;;17.38;64.23;100650.97;4438895;32;19970;-81
2022/10/30 00:11:08;;;;;;;;;;;;;;;17.31;64.40;100643.97;4440805;32;20788;-76
2022/10/30 00:13:35;;;;;;;;;;;;;;;17.27;64.63;100657.94;4440739;32;19981;-93
2022/10/30 00:16:03;;;;;;;;;;;;;;;17.30;64.66;100652.72;4443080;32;19988;-90
2022/10/30 00:18:29;;;;;;;;;;;;;;;17.33;64.36;100652.72;4443383;32;19970;-76
2022/10/30 00:20:56;;;;;;;;;;;;;;;17.34;64.39;100643.97;4431851;32;19986;-86
2022/10/30 00:23:23;;;;;;;;;;;;;;;17.26;64.56;100648.31;4432258;32;20007;-77
2022/10/30 00:25:50;;;;;;;;;;;;;;;17.25;64.69;100646.56;4430245;32;20023;-79
2022/10/30 00:28:17;;;;;;;;;;;;;;;17.18;64.73;100646.56;4433938;32;19974;-80
2022/10/30 00:30:45;;;;;;;;;;;;;;;17.02;65.40;100642.16;4440617;32;19973;-81
2022/10/30 00:33:11;;;;;;;;;;;;;;;17.16;65.02;100645.69;4442382;32;19969;-84
2022/10/30 00:35:38;;;;;;;;;;;;;;;17.10;65.14;100635.22;4438553;32;19997;-84
2022/10/30 00:38:05;;;;;;;;;;;;;;;17.18;64.92;100633.47;4431382;32;20344;-80
2022/10/30 00:40:32;;;;;;;;;;;;;;;17.03;65.33;100622.97;4440396;32;19970;-83
2022/10/30 00:42:58;;;;;;;;;;;;;;;17.08;65.34;100626.50;4431705;32;19999;-87
2022/10/30 00:45:26;;;;;;;;;;;;;;;16.92;65.87;100624.72;4429749;32;20771;-89
2022/10/30 00:47:55;;;;;;;;;;;;;;;17.10;65.31;100629.09;4438322;32;19977;-83
2022/10/30 00:50:25;;;;;;;;;;;;;;;17.06;65.24;100617.75;4421594;32;20361;-87
2022/10/30 00:53:02;;;;;;;;;;;;;;;17.07;65.25;100624.75;4433807;32;19996;-80
2022/10/30 00:55:36;;;;;;;;;;;;;;;17.02;65.59;100616.00;4438908;32;19989;-77
2022/10/30 00:58:06;;;;;;;;;;;;;;;17.07;65.06;100624.75;4433091;32;19981;-83
2022/10/30 01:00:33;;;;;;;;;;;;;;;17.05;64.89;100626.47;4138913;32;10000595;-86
2022/10/30 01:02:59;;;;;;;;;;;;;;;16.94;65.49;100617.72;4436642;32;20322;-77
2022/10/30 01:05:27;;;;;;;;;;;;;;;17.20;64.56;100621.28;4443071;32;19985;-76
2022/10/30 01:07:54;;;;;;;;;;;;;;;17.06;65.09;100622.12;4430203;32;19977;-76
2022/10/30 01:10:21;;;;;;;;;;;;;;;17.14;64.94;100621.28;4438699;32;19977;-80
2022/10/30 01:12:48;;;;;;;;;;;;;;;17.14;64.64;100621.28;4436316;32;20720;-77
2022/10/30 01:15:15;;;;;;;;;;;;;;;17.15;64.49;100623.00;4442878;32;20467;-86
2022/10/30 01:17:45;;;;;;;;;;;;;;;17.16;64.68;100619.50;4446226;32;19993;-87
2022/10/30 01:20:16;;;;;;;;;;;;;;;16.91;65.61;100602.94;4447105;32;19969;-90
2022/10/30 01:23:01;;;;;;;;;;;;;;;16.97;65.52;100602.03;4444859;32;20009;-77
2022/10/30 01:25:48;;;;;;;;;;;;;;;16.94;65.74;100602.03;4431695;32;19984;-89
2022/10/30 01:28:22;;;;;;;;;;;;;;;17.09;65.04;100602.06;4440638;32;19984;-86
2022/10/30 01:30:59;;;;;;;;;;;;;;;17.07;65.14;100593.37;4443842;32;20016;-76
2022/10/30 01:33:44;;;;;;;;;;;;;;;16.77;66.27;100591.53;4438105;32;20037;-83
2022/10/30 01:36:14;;;;;;;;;;;;;;;16.37;67.18;100587.88;4431705;32;19992;-86
2022/10/30 01:38:43;;;;;;;;;;;;;;;16.67;66.40;100582.75;4440060;32;20048;-77
2022/10/30 01:41:10;;;;;;;;;;;;;;;16.63;66.45;100580.16;4442360;32;20027;-77
2022/10/30 01:43:37;;;;;;;;;;;;;;;16.43;66.98;100578.34;4409933;32;19986;-77
2022/10/30 01:46:11;;;;;;;;;;;;;;;16.80;65.91;100575.84;4419560;32;20321;-77
2022/10/30 01:48:59;;;;;;;;;;;;;;;16.91;65.53;100578.50;4422624;32;20312;-81
2022/10/30 01:51:32;;;;;;;;;;;;;;;16.89;65.57;100577.62;4421276;32;19995;-77
2022/10/30 01:54:03;;;;;;;;;;;;;;;17.03;64.89;100581.12;4431481;32;20008;-81
2022/10/30 01:56:43;;;;;;;;;;;;;;;16.98;65.23;100592.47;4430049;32;19989;-89
2022/10/30 01:59:29;;;;;;;;;;;;;;;17.13;64.58;100598.59;4419884;32;20361;-84
2022/10/30 02:01:56;;;;;;;;;;;;;;;16.91;65.29;100591.56;4400779;32;19999;-82
2022/10/30 02:04:23;;;;;;;;;;;;;;;17.07;64.61;100593.37;4417343;32;19985;-86
2022/10/30 02:06:50;;;;;;;;;;;;;;;16.98;64.98;100588.12;4419370;32;20057;-85
2022/10/30 02:09:17;;;;;;;;;;;;;;;16.99;65.14;100589.84;4419061;32;19993;-84
2022/10/30 02:11:44;;;;;;;;;;;;;;;17.02;65.05;100591.59;4424363;32;19978;-76
2022/10/30 02:14:11;;;;;;;;;;;;;;;16.99;65.09;100589.84;4426570;32;20762;-81
2022/10/30 02:16:41;;;;;;;;;;;;;;;16.89;65.37;100598.56;4414415;32;19998;-87
2022/10/30 02:19:08;;;;;;;;;;;;;;;16.95;65.06;100599.44;4414475;32;20388;-91
2022/10/30 02:21:35;;;;;;;;;;;;;;;16.92;65.13;100588.97;4418739;32;19981;-92
2022/10/30 02:24:02;;;;;;;;;;;;;;;17.17;64.26;100594.25;4419621;32;20349;-95
2022/10/30 02:26:29;;;;;;;;;;;;;;;16.92;65.17;100588.09;4417971;32;19986;-83
2022/10/30 02:28:57;;;;;;;;;;;;;;;16.94;65.07;100591.56;4417222;32;19974;-76
2022/10/30 02:31:23;;;;;;;;;;;;;;;17.03;64.70;100602.06;4407289;32;19978;-77
2022/10/30 02:33:50;;;;;;;;;;;;;;;16.99;64.89;100592.47;4404214;32;20013;-76
2022/10/30 02:36:18;;;;;;;;;;;;;;;17.02;64.84;100595.09;4408864;32;19982;-76
2022/10/30 02:38:46;;;;;;;;;;;;;;;17.00;64.73;100594.19;4402664;32;20339;-77
2022/10/30 02:41:13;;;;;;;;;;;;;;;16.99;64.58;100595.09;4400790;32;20387;-83
2022/10/30 02:43:40;;;;;;;;;;;;;;;16.94;64.73;100583.72;4417233;32;19978;-88
2022/10/30 02:46:08;;;;;;;;;;;;;;;17.02;64.57;100589.84;4422209;32;20000;-84
2022/10/30 02:48:35;;;;;;;;;;;;;;;17.02;64.51;100578.53;4402176;32;19990;-81
2022/10/30 02:51:02;;;;;;;;;;;;;;;17.07;64.21;100576.78;4402346;32;19988;-77
2022/10/30 02:53:29;;;;;;;;;;;;;;;17.06;64.20;100586.37;4402086;32;19978;-76
2022/10/30 02:56:02;;;;;;;;;;;;;;;17.00;64.19;100581.12;4403987;32;19986;-82
2022/10/30 02:58:29;;;;;;;;;;;;;;;16.89;64.50;100583.72;4411561;32;19990;-86
2022/10/30 03:00:56;;;;;;;;;;;;;;;16.80;64.68;100582.84;4419364;32;19970;-79
2022/10/30 03:03:22;;;;;;;;;;;;;;;16.89;64.28;100585.47;4408610;32;19995;-87
2022/10/30 03:05:49;;;;;;;;;;;;;;;16.82;64.68;100581.97;4402409;32;20017;-88
2022/10/30 03:08:16;;;;;;;;;;;;;;;16.70;64.96;100588.00;4402420;32;20339;-80
2022/10/30 03:10:43;;;;;;;;;;;;;;;16.93;64.38;100592.44;4410652;32;20029;-76
2022/10/30 03:13:10;;;;;;;;;;;;;;;16.87;64.54;100589.81;4401914;32;20025;-76
2022/10/30 03:15:37;;;;;;;;;;;;;;;16.81;64.78;100584.56;4404021;32;20380;-77
2022/10/30 03:18:04;;;;;;;;;;;;;;;16.76;64.86;100587.19;4408211;32;19997;-83
2022/10/30 03:20:31;;;;;;;;;;;;;;;16.85;64.74;100586.34;4402124;32;19989;-81
2022/10/30 03:22:58;;;;;;;;;;;;;;;16.79;64.91;100586.34;4403196;32;19969;-83
2022/10/30 03:25:24;;;;;;;;;;;;;;;16.83;64.79;100588.06;4409188;32;19993;-81
2022/10/30 03:27:52;;;;;;;;;;;;;;;16.86;64.59;100588.94;4403873;32;20400;-78
2022/10/30 03:30:19;;;;;;;;;;;;;;;16.89;64.51;100583.72;4408675;32;19978;-81
2022/10/30 03:32:46;;;;;;;;;;;;;;;16.96;64.25;100575.03;4401139;32;19989;-76
2022/10/30 03:35:13;;;;;;;;;;;;;;;16.93;64.33;100579.37;4402584;32;20025;-78
2022/10/30 03:37:40;;;;;;;;;;;;;;;16.81;64.78;100579.34;4406416;32;19996;-81
2022/10/30 03:40:07;;;;;;;;;;;;;;;16.86;64.65;100582.84;4405512;32;20045;-94
2022/10/30 03:42:38;;;;;;;;;;;;;;;16.80;64.71;100577.59;4410216;32;20044;-87
2022/10/30 03:45:05;;;;;;;;;;;;;;;16.73;65.07;100582.78;4392558;32;19993;-88
2022/10/30 03:47:32;;;;;;;;;;;;;;;16.88;64.63;100583.72;4450547;32;19989;-90
2022/10/30 03:49:58;;;;;;;;;;;;;;;16.86;64.46;100582.84;4445985;32;20021;-88
2022/10/30 03:52:26;;;;;;;;;;;;;;;16.87;64.52;100577.62;4439484;32;20020;-85
2022/10/30 03:54:52;;;;;;;;;;;;;;;16.81;64.64;100584.56;4431916;32;20314;-77
2022/10/30 03:57:20;;;;;;;;;;;;;;;16.70;64.98;100580.16;4437987;32;20052;-88
2022/10/30 03:59:47;;;;;;;;;;;;;;;16.88;64.50;100582.00;4438562;32;20039;-77
2022/10/30 04:02:15;;;;;;;;;;;;;;;16.83;64.50;100582.84;4458548;32;19999;-84
2022/10/30 04:04:42;;;;;;;;;;;;;;;16.68;64.73;100579.28;4447634;32;19988;-85
2022/10/30 04:07:09;;;;;;;;;;;;;;;16.76;64.37;100578.47;4442809;32;20372;-78
2022/10/30 04:09:36;;;;;;;;;;;;;;;16.84;64.27;100568.87;4436120;32;19969;-78
2022/10/30 04:12:03;;;;;;;;;;;;;;;16.73;64.49;100576.69;4442325;32;20311;-89
2022/10/30 04:14:30;;;;;;;;;;;;;;;16.73;64.39;100572.31;4443169;32;20315;-80
2022/10/30 04:16:57;;;;;;;;;;;;;;;16.74;64.35;100568.84;4438884;32;20007;-79
2022/10/30 04:19:24;;;;;;;;;;;;;;;16.68;64.61;100574.03;4432316;32;20382;-83
2022/10/30 04:21:51;;;;;;;;;;;;;;;16.81;64.07;100571.50;4432054;32;20716;-77
2022/10/30 04:24:18;;;;;;;;;;;;;;;16.79;63.97;100570.66;4434449;32;20739;-85
2022/10/30 04:26:45;;;;;;;;;;;;;;;16.77;64.06;100573.25;4439045;32;20036;-76
2022/10/30 04:29:12;;;;;;;;;;;;;;;16.84;63.57;100574.12;4439454;32;19974;-81
2022/10/30 04:31:39;;;;;;;;;;;;;;;16.64;64.03;100569.69;4443548;32;20034;-76
2022/10/30 04:34:06;;;;;;;;;;;;;;;16.73;63.85;100572.31;4431629;32;19977;-83
2022/10/30 04:36:33;;;;;;;;;;;;;;;16.89;63.31;100577.62;4430475;32;19977;-77
2022/10/30 04:39:01;;;;;;;;;;;;;;;16.76;63.82;100575.87;4418409;32;19989;-77
2022/10/30 04:41:28;;;;;;;;;;;;;;;16.85;63.40;100570.66;4430673;32;20004;-87
2022/10/30 04:43:55;;;;;;;;;;;;;;;16.71;63.72;100576.66;4431563;32;19996;-84
2022/10/30 04:46:22;;;;;;;;;;;;;;;16.77;63.60;100572.37;4438501;32;20053;-84
2022/10/30 04:48:56;;;;;;;;;;;;;;;16.74;63.67;100568.84;4432031;32;19970;-77
2022/10/30 04:51:22;;;;;;;;;;;;;;;16.81;63.37;100571.50;4440762;32;20277;-76
2022/10/30 04:53:50;;;;;;;;;;;;;;;16.80;63.46;100567.16;4431682;32;20048;-86
2022/10/30 04:56:17;;;;;;;;;;;;;;;16.72;63.73;100559.25;4432013;32;20037;-78
2022/10/30 04:58:44;;;;;;;;;;;;;;;16.73;63.52;100572.31;4437374;32;20008;-80
2022/10/30 05:01:11;;;;;;;;;;;;;;;16.72;63.62;100575.81;4434752;32;19988;-76
2022/10/30 05:03:38;;;;;;;;;;;;;;;16.79;63.40;100578.50;4438931;32;19976;-81
2022/10/30 05:06:06;;;;;;;;;;;;;;;16.73;63.39;100567.09;4432892;32;20008;-83
2022/10/30 05:08:34;;;;;;;;;;;;;;;16.73;63.32;100574.06;4443347;32;20071;-83
2022/10/30 05:11:02;;;;;;;;;;;;;;;16.76;63.22;100570.62;4441388;32;19989;-81
2022/10/30 05:13:29;;;;;;;;;;;;;;;16.80;62.82;100568.00;4439110;32;21102;-77
2022/10/30 05:15:56;;;;;;;;;;;;;;;16.81;62.61;100579.34;4431669;32;19973;-81
2022/10/30 05:18:23;;;;;;;;;;;;;;;16.82;62.74;100581.09;4431876;32;19969;-83
2022/10/30 05:20:50;;;;;;;;;;;;;;;16.72;62.93;100586.28;4432441;32;20708;-81
2022/10/30 05:23:17;;;;;;;;;;;;;;;16.86;62.78;100583.72;4435656;32;19977;-90
2022/10/30 05:25:43;;;;;;;;;;;;;;;16.79;62.70;100591.56;4435712;32;20037;-79
2022/10/30 05:28:10;;;;;;;;;;;;;;;16.68;63.01;100589.72;4431881;32;20009;-77
2022/10/30 05:30:39;;;;;;;;;;;;;;;16.73;62.97;100588.00;4431694;32;20000;-88
2022/10/30 05:33:08;;;;;;;;;;;;;;;16.70;63.01;100592.38;4437603;32;20397;-80
2022/10/30 05:35:35;;;;;;;;;;;;;;;16.69;63.01;100601.09;4443082;32;20330;-79
2022/10/30 05:38:03;;;;;;;;;;;;;;;16.71;62.96;100602.81;4431349;32;20001;-80
2022/10/30 05:40:29;;;;;;;;;;;;;;;16.69;63.01;100604.56;4430258;32;20000;-83
2022/10/30 05:42:57;;;;;;;;;;;;;;;16.64;63.16;100603.66;4431820;32;20049;-91
2022/10/30 05:45:24;;;;;;;;;;;;;;;16.72;63.05;100607.19;4432845;32;20005;-76
2022/10/30 05:47:58;;;;;;;;;;;;;;;16.76;63.04;100617.69;4415549;32;19996;-79
2022/10/30 05:50:29;;;;;;;;;;;;;;;16.81;62.93;100627.28;4424171;32;19974;-89
2022/10/30 05:53:08;;;;;;;;;;;;;;;16.65;63.31;100612.38;4416090;32;20751;-82
2022/10/30 05:55:36;;;;;;;;;;;;;;;16.67;63.54;100608.91;4415358;32;19989;-77
2022/10/30 05:58:04;;;;;;;;;;;;;;;16.68;63.44;100605.41;4422522;32;20305;-85
2022/10/30 06:00:32;;;;;;;;;;;;;;;16.76;63.06;100602.00;4415179;32;20008;-79
2022/10/30 06:03:06;;;;;;;;;;;;;;;16.61;63.58;100600.16;4416402;32;19964;-77
2022/10/30 06:05:34;;;;;;;;;;;;;;;16.73;62.78;100601.09;4423977;32;19982;-80
2022/10/30 06:08:01;;;;;;;;;;;;;;;16.61;63.42;100598.44;4414721;32;19974;-77
2022/10/30 06:10:28;;;;;;;;;;;;;;;16.64;63.30;100603.66;4419938;32;20327;-91
2022/10/30 06:12:55;;;;;;;;;;;;;;;16.62;63.41;100600.16;4424235;32;20080;-82
2022/10/30 06:15:24;;;;;;;;;;;;;;;16.66;63.30;100601.06;4388960;32;861290;-92
2022/10/30 06:17:51;;;;;;;;;;;;;;;16.74;63.14;100589.75;4415420;32;19985;-86
2022/10/30 06:20:18;;;;;;;;;;;;;;;16.91;62.46;100607.25;4418707;32;19969;-77
2022/10/30 06:22:58;;;;;;;;;;;;;;;16.80;62.76;100603.75;4425462;32;20057;-91
2022/10/30 06:25:25;;;;;;;;;;;;;;;16.67;63.18;100602.81;4422818;32;19970;-83
2022/10/30 06:27:53;;;;;;;;;;;;;;;16.81;62.98;100605.50;4418739;32;20028;-82
2022/10/30 06:30:20;;;;;;;;;;;;;;;17.04;62.25;100608.16;4416977;32;20440;-77
2022/10/30 06:32:49;;;;;;;;;;;;;;;16.92;62.72;100603.78;4423664;32;19991;-81
2022/10/30 06:35:16;;;;;;;;;;;;;;;16.99;62.19;100605.53;4418618;32;19981;-96
2022/10/30 06:37:46;;;;;;;;;;;;;;;16.98;62.43;100603.81;4421683;32;19954;-84
2022/10/30 06:40:14;;;;;;;;;;;;;;;16.95;62.57;100611.66;4419100;32;20033;-91
2022/10/30 06:42:46;;;;;;;;;;;;;;;16.95;62.45;100609.03;4418036;32;20041;-92
2022/10/30 06:45:15;;;;;;;;;;;;;;;16.90;62.41;100610.75;4427998;32;19982;-85
2022/10/30 06:47:42;;;;;;;;;;;;;;;16.82;62.91;100613.34;4439016;32;20012;-82
2022/10/30 06:50:10;;;;;;;;;;;;;;;16.86;63.15;100627.31;4433185;32;20050;-91
2022/10/30 06:52:37;;;;;;;;;;;;;;;16.94;62.95;100622.97;4435549;32;19985;-89
2022/10/30 06:55:05;;;;;;;;;;;;;;;17.02;62.41;100623.87;4444445;32;20024;-93
2022/10/30 06:57:34;;;;;;;;;;;;;;;17.03;62.39;100620.37;4441341;32;19984;-85
2022/10/30 07:00:02;;;;;;;;;;;;;;;17.04;62.52;100614.28;4443886;32;19992;-80
2022/10/30 07:02:29;;;;;;;;;;;;;;;17.05;62.49;100626.47;4445224;32;20028;-78
2022/10/30 07:04:56;;;;;;;;;;;;;;;17.05;62.45;100629.09;4445935;32;20483;-83
2022/10/30 07:07:23;;;;;;;;;;;;;;;17.10;62.47;100629.09;4445863;32;19989;-85
2022/10/30 07:09:50;;;;;;;;;;;;;;;17.12;62.53;100633.47;4451001;32;20001;-81
2022/10/30 07:12:18;;;;;;;;;;;;;;;16.94;62.89;100622.97;4437111;32;20354;-75
2022/10/30 07:14:45;;;;;;;;;;;;;;;17.14;62.17;100626.50;4436305;32;20544;-77
2022/10/30 07:17:12;;;;;;;;;;;;;;;17.16;62.34;100622.12;4447300;32;20101;-76
2022/10/30 07:19:40;;;;;;;;;;;;;;;17.11;62.37;100616.03;4443489;32;20000;-80
2022/10/30 07:22:07;;;;;;;;;;;;;;;17.10;62.64;100619.53;4436053;32;19992;-81
2022/10/30 07:24:36;;;;;;;;;;;;;;;17.19;62.26;100624.75;4433117;32;20061;-84
2022/10/30 07:27:03;;;;;;;;;;;;;;;17.22;62.23;100628.25;4433282;32;19973;-79
2022/10/30 07:29:30;;;;;;;;;;;;;;;17.19;62.35;100624.75;4433658;32;20332;-76
2022/10/30 07:31:57;;;;;;;;;;;;;;;17.01;62.55;100629.09;4439880;32;20036;-90
2022/10/30 07:34:29;;;;;;;;;;;;;;;17.10;62.37;100630.00;4437032;32;19981;-83
2022/10/30 07:36:55;;;;;;;;;;;;;;;17.32;61.69;100630.00;4447074;32;20016;-76
2022/10/30 07:39:22;;;;;;;;;;;;;;;17.26;61.67;100630.00;4445644;32;19996;-76
2022/10/30 07:41:49;;;;;;;;;;;;;;;17.20;61.99;100625.66;4435769;32;19997;-86
2022/10/30 07:44:19;;;;;;;;;;;;;;;17.24;61.87;100637.00;4431766;32;20878;-77
2022/10/30 07:46:46;;;;;;;;;;;;;;;17.30;61.95;100642.25;4441132;32;19981;-88
2022/10/30 07:49:15;;;;;;;;;;;;;;;17.29;61.92;100640.47;4431860;32;19989;-77
2022/10/30 07:51:45;;;;;;;;;;;;;;;17.28;61.77;100641.34;4437464;32;19981;-83
2022/10/30 07:54:12;;;;;;;;;;;;;;;17.40;61.58;100638.75;4434688;32;19981;-90
2022/10/30 07:56:39;;;;;;;;;;;;;;;17.24;62.18;100637.88;4432184;32;19982;-87
2022/10/30 07:59:08;;;;;;;;;;;;;;;17.33;61.95;100634.41;4431724;32;20041;-78
2022/10/30 08:01:35;;;;;;;;;;;;;;;17.34;61.78;100638.75;4444942;32;20034;-76
2022/10/30 08:04:03;;;;;;;;;;;;;;;17.07;62.67;100640.44;4125658;32;10001048;-83
2022/10/30 08:06:30;;;;;;;;;;;;;;;17.28;61.99;100641.34;4432146;32;20460;-76
2022/10/30 08:08:58;;;;;;;;;;;;;;;17.08;62.49;100638.69;4434239;32;20026;-80
2022/10/30 08:11:25;;;;;;;;;;;;;;;17.14;62.61;100642.22;4438582;32;19994;-76
2022/10/30 08:13:52;;;;;;;;;;;;;;;17.32;62.15;100648.31;4432283;32;19998;-76
2022/10/30 08:16:19;;;;;;;;;;;;;;;17.40;61.68;100638.75;4430481;32;19973;-84
2022/10/30 08:18:47;;;;;;;;;;;;;;;17.32;61.72;100640.47;3814174;32;10000215;-80
2022/10/30 08:21:16;;;;;;;;;;;;;;;17.34;61.49;100643.97;4434081;32;19997;-88
2022/10/30 08:23:44;;;;;;;;;;;;;;;17.30;61.84;100652.72;4436601;32;19978;-79
2022/10/30 08:26:11;;;;;;;;;;;;;;;17.42;61.56;100647.47;4430223;32;20005;-81
2022/10/30 08:28:38;;;;;;;;;;;;;;;17.41;61.30;100645.72;4435582;32;20023;-79
2022/10/30 08:31:05;;;;;;;;;;;;;;;17.37;61.50;100647.47;4443234;32;20335;-81
2022/10/30 08:33:41;;;;;;;;;;;;;;;17.45;60.90;100637.00;4446290;32;20337;-78
2022/10/30 08:36:10;;;;;;;;;;;;;;;17.43;61.03;100641.38;4444850;32;20812;-78
2022/10/30 08:38:37;;;;;;;;;;;;;;;17.26;62.25;100641.38;4440969;32;19981;-85
2022/10/30 08:41:04;;;;;;;;;;;;;;;17.31;61.87;100649.22;4420684;32;20381;-87
2022/10/30 08:43:31;;;;;;;;;;;;;;;17.47;61.48;100640.50;4431624;32;19985;-86
2022/10/30 08:45:59;;;;;;;;;;;;;;;17.47;61.09;100656.22;4435473;32;19993;-90
2022/10/30 08:48:25;;;;;;;;;;;;;;;17.50;61.10;100653.59;4441083;32;20360;-84
2022/10/30 08:50:56;;;;;;;;;;;;;;;17.70;60.39;100642.25;4416827;32;20017;-88
2022/10/30 08:53:24;;;;;;;;;;;;;;;17.56;60.70;100640.50;4432066;32;20013;-87
2022/10/30 08:55:51;;;;;;;;;;;;;;;17.60;61.23;100639.63;4431555;32;20314;-87
2022/10/30 08:58:19;;;;;;;;;;;;;;;17.60;61.10;100642.25;4423744;32;20545;-88
2022/10/30 09:00:46;;;;;;;;;;;;;;;17.60;61.25;100637.00;4417256;32;20028;-86
2022/10/30 09:03:31;;;;;;;;;;;;;;;17.66;60.84;100637.00;4416335;32;20433;-86
2022/10/30 09:06:00;;;;;;;;;;;;;;;17.33;62.01;100637.88;4416118;32;20037;-81
2022/10/30 09:08:28;;;;;;;;;;;;;;;17.55;60.64;100637.88;4416577;32;19993;-76
2022/10/30 09:10:55;;;;;;;;;;;;;;;17.58;60.39;100633.53;4424323;32;20041;-77
2022/10/30 09:13:23;;;;;;;;;;;;;;;17.46;60.96;100644.00;4425023;32;19981;-79
2022/10/30 09:15:51;;;;;;;;;;;;;;;17.51;61.30;100646.59;4416190;32;20001;-86
2022/10/30 09:18:18;;;;;;;;;;;;;;;17.55;61.26;100644.00;4416375;32;19973;-85
2022/10/30 09:20:47;;;;;;;;;;;;;;;17.33;61.75;100647.47;4424663;32;20351;-82
2022/10/30 09:23:14;;;;;;;;;;;;;;;17.50;61.45;100645.75;4416593;32;20040;-82
2022/10/30 09:25:43;;;;;;;;;;;;;;;17.50;61.47;100645.75;4420628;32;20014;-81
2022/10/30 09:28:10;;;;;;;;;;;;;;;17.55;61.07;100638.78;4420731;32;20096;-82
2022/10/30 09:30:40;;;;;;;;;;;;;;;17.61;61.11;100638.78;4415195;32;20008;-84
2022/10/30 09:33:08;;;;;;;;;;;;;;;17.67;60.72;100633.50;4424990;32;20044;-83
2022/10/30 09:35:36;;;;;;;;;;;;;;;17.74;60.50;100636.13;4416251;32;19982;-87
2022/10/30 09:38:03;;;;;;;;;;;;;;;17.85;60.08;100639.66;4416945;32;20037;-87
2022/10/30 09:40:39;;;;;;;;;;;;;;;17.70;60.94;100639.63;4423976;32;19986;-87
2022/10/30 09:43:14;;;;;;;;;;;;;;;17.64;61.15;100638.78;4430905;32;20030;-83
2022/10/30 09:45:49;;;;;;;;;;;;;;;17.75;61.24;100636.16;4421464;32;20406;-83
2022/10/30 09:48:16;;;;;;;;;;;;;;;17.80;61.22;100639.66;4416199;32;19974;-86
2022/10/30 09:50:54;;;;;;;;;;;;;;;17.91;60.06;100631.81;4415826;32;19982;-84
2022/10/30 09:53:24;;;;;;;;;;;;;;;17.89;59.95;100628.31;4415862;32;19974;-85
2022/10/30 09:56:08;;;;;;;;;;;;;;;17.42;62.28;100621.28;4428926;32;20339;-84
2022/10/30 09:58:38;;;;;;;;;;;;;;;17.01;63.61;100613.41;4427743;32;19993;-84
2022/10/30 10:01:09;;;;;;;;;;;;;;;16.98;64.07;100616.87;4415698;32;19992;-85
2022/10/30 10:03:55;;;;;;;;;;;;;;;17.19;63.24;100619.53;4416779;32;20027;-86
2022/10/30 10:06:24;;;;;;;;;;;;;;;16.54;66.23;100621.94;4416117;32;20001;-85
2022/10/30 10:08:58;;;;;;;;;;;;;;;17.35;63.44;100624.78;4433053;32;20040;-83
2022/10/30 10:11:47;;;;;;;;;;;;;;;17.59;61.74;100618.69;3104518;32;20012000;-85
2022/10/30 10:14:17;;;;;;;;;;;;;;;17.48;62.00;100610.81;4123572;32;9999985;-85
2022/10/30 10:16:44;;;;;;;;;;;;;;;17.70;61.85;100619.56;4430601;32;20015;-80
2022/10/30 10:19:30;;;;;;;;;;;;;;;17.74;61.60;100615.19;4430169;32;20033;-84
2022/10/30 10:21:58;;;;;;;;;;;;;;;17.87;61.48;100609.97;4437333;32;20401;-81
2022/10/30 10:24:25;;;;;;;;;;;;;;;18.00;60.66;100605.59;4433827;32;20031;-84
2022/10/30 10:26:52;;;;;;;;;;;;;;;17.95;61.23;100606.47;4442007;32;19990;-84
2022/10/30 10:29:48;;;;;;;;;;;;;;;17.84;61.95;100603.88;4435104;32;19989;-84
2022/10/30 10:32:29;;;;;;;;;;;;;;;17.98;61.00;100602.09;4426835;32;19977;-79
2022/10/30 10:35:01;;;;;;;;;;;;;;;17.94;61.19;100610.84;4437067;32;20512;-80
2022/10/30 10:37:31;;;;;;;;;;;;;;;18.20;60.08;100607.28;4444472;32;19993;-81
2022/10/30 10:39:58;;;;;;;;;;;;;;;17.57;63.08;100599.50;4444719;32;19977;-83
2022/10/30 10:42:31;;;;;;;;;;;;;;;17.58;62.99;100602.13;4443797;32;20376;-81
2022/10/30 10:44:58;;;;;;;;;;;;;;;17.72;62.07;100598.62;4435856;32;19993;-81
2022/10/30 10:47:31;;;;;;;;;;;;;;;17.67;62.31;100601.22;4433124;32;19981;-81
2022/10/30 10:50:00;;;;;;;;;;;;;;;17.96;61.18;100590.72;4439745;32;19977;-82
2022/10/30 10:52:30;;;;;;;;;;;;;;;17.88;61.43;100595.12;4445001;32;19977;-83
2022/10/30 10:54:58;;;;;;;;;;;;;;;17.98;61.54;100591.62;4441716;32;19973;-80
2022/10/30 10:57:25;;;;;;;;;;;;;;;18.33;60.35;100588.03;4445591;32;20000;-83
2022/10/30 10:59:53;;;;;;;;;;;;;;;18.39;59.72;100593.25;4446984;32;20074;-82
2022/10/30 11:02:23;;;;;;;;;;;;;;;18.17;60.12;100600.31;4447472;32;20455;-82
2022/10/30 11:04:51;;;;;;;;;;;;;;;18.12;60.21;100592.47;4446153;32;19990;-83
2022/10/30 11:07:19;;;;;;;;;;;;;;;18.24;59.94;100593.28;4443971;32;20004;-77
2022/10/30 11:09:47;;;;;;;;;;;;;;;18.27;60.42;100593.28;4444292;32;20326;-81
2022/10/30 11:12:14;;;;;;;;;;;;;;;17.96;62.03;100588.12;4444041;32;19984;-84
2022/10/30 11:14:40;;;;;;;;;;;;;;;18.26;60.70;100576.69;4438316;32;20334;-79
2022/10/30 11:17:13;;;;;;;;;;;;;;;16.93;64.67;100574.16;4442302;32;19981;-80
2022/10/30 11:19:40;;;;;;;;;;;;;;;17.37;63.99;100575.94;4436109;32;19996;-76
2022/10/30 11:22:11;;;;;;;;;;;;;;;17.44;63.08;100569.81;4441598;32;20308;-82
2022/10/30 11:24:38;;;;;;;;;;;;;;;18.05;60.81;100572.37;4439171;32;19978;-84
2022/10/30 11:27:17;;;;;;;;;;;;;;;17.81;62.89;100572.44;4441230;32;19996;-83
2022/10/30 11:29:50;;;;;;;;;;;;;;;18.04;61.84;100572.41;4441817;32;19981;-83
2022/10/30 11:32:21;;;;;;;;;;;;;;;18.10;61.23;100575.00;4445576;32;20310;-85
2022/10/30 11:35:06;;;;;;;;;;;;;;;18.08;61.54;100569.75;4441018;32;19982;-84
2022/10/30 11:37:34;;;;;;;;;;;;;;;18.33;60.26;100567.06;3984380;32;10006839;-84
2022/10/30 11:40:21;;;;;;;;;;;;;;;18.31;60.61;100563.56;4442371;32;19985;-83
2022/10/30 11:42:53;;;;;;;;;;;;;;;18.35;60.36;100570.56;4437795;32;20041;-78
2022/10/30 11:45:39;;;;;;;;;;;;;;;18.43;59.29;100567.88;4440278;32;19995;-85
2022/10/30 11:48:15;;;;;;;;;;;;;;;18.20;60.23;100576.72;4446824;32;20361;-81
2022/10/30 11:50:47;;;;;;;;;;;;;;;18.15;60.88;100572.34;4446960;32;20050;-84
2022/10/30 11:53:17;;;;;;;;;;;;;;;18.07;61.05;100560.16;4447182;32;20346;-82
2022/10/30 11:55:44;;;;;;;;;;;;;;;18.40;59.85;100553.03;4444149;32;19993;-83
2022/10/30 11:58:19;;;;;;;;;;;;;;;18.47;59.74;100557.38;4445223;32;20323;-75
2022/10/30 12:00:46;;;;;;;;;;;;;;;18.46;59.78;100555.63;4443601;32;19977;-77
2022/10/30 12:03:25;;;;;;;;;;;;;;;18.33;60.25;100553.94;4444907;32;19976;-81
2022/10/30 12:05:52;;;;;;;;;;;;;;;17.99;61.63;100558.44;4446536;32;20026;-76
2022/10/30 12:08:19;;;;;;;;;;;;;;;17.53;63.00;100556.72;4444597;32;19996;-78
2022/10/30 12:10:58;;;;;;;;;;;;;;;18.23;61.36;100550.50;4443468;32;19992;-80
2022/10/30 12:13:25;;;;;;;;;;;;;;;18.37;60.74;100547.81;4432156;32;19981;-76
2022/10/30 12:16:10;;;;;;;;;;;;;;;18.58;59.62;100542.47;4438289;32;19977;-75
2022/10/30 12:18:37;;;;;;;;;;;;;;;18.15;61.47;100546.16;4432374;32;19978;-75
2022/10/30 12:21:04;;;;;;;;;;;;;;;17.58;63.10;100534.06;4437685;32;20861;-82
2022/10/30 12:23:31;;;;;;;;;;;;;;;18.03;62.08;100537.47;4439788;32;20022;-82
2022/10/30 12:25:59;;;;;;;;;;;;;;;17.82;62.50;100534.91;4441257;32;20334;-78
2022/10/30 12:28:26;;;;;;;;;;;;;;;18.33;60.07;100535.59;4444943;32;19973;-75
2022/10/30 12:30:54;;;;;;;;;;;;;;;18.38;59.97;100536.47;4433230;32;20115;-74
2022/10/30 12:33:21;;;;;;;;;;;;;;;18.47;59.48;100538.16;4446376;32;19977;-77
2022/10/30 12:35:54;;;;;;;;;;;;;;;18.34;60.74;100542.56;4442119;32;19996;-79
2022/10/30 12:38:39;;;;;;;;;;;;;;;18.19;61.56;100553.13;4443343;32;20323;-84
2022/10/30 12:41:24;;;;;;;;;;;;;;;18.29;61.37;100541.75;4430844;32;20000;-78
2022/10/30 12:44:06;;;;;;;;;;;;;;;18.56;60.33;100536.34;4430839;32;20270;-78
2022/10/30 12:46:39;;;;;;;;;;;;;;;18.69;59.24;100544.16;4431810;32;20031;-75